createdAt,value
2023-02-03T00:00:08.131Z,10.23
2023-02-03T00:02:42.241Z,6.95
2023-02-03T00:05:09.463Z,8.65
2023-02-03T00:07:38.890Z,10.07
2023-02-03T00:10:07.308Z,6.65
2023-02-03T00:12:34.485Z,8.93
2023-02-03T00:15:01.436Z,8.32
2023-02-03T00:17:28.373Z,12.60
2023-02-03T00:19:55.249Z,10.23
2023-02-03T00:22:22.174Z,9.82
2023-02-03T00:24:49.111Z,8.63
2023-02-03T00:27:16.113Z,11.98
2023-02-03T00:29:43.291Z,8.68
2023-02-03T00:32:10.257Z,15.05
2023-02-03T00:34:37.269Z,12.60
2023-02-03T00:37:04.458Z,17.70
2023-02-03T00:39:31.278Z,14.77
2023-02-03T00:41:58.128Z,16.73
2023-02-03T00:44:26.245Z,18.35
2023-02-03T00:46:53.102Z,20.08
2023-02-03T00:49:21.098Z,19.75
2023-02-03T00:51:48.140Z,19.10
2023-02-03T00:54:15.067Z,15.02
2023-02-03T00:56:42.133Z,14.63
2023-02-03T00:59:09.033Z,16.33
2023-02-03T01:01:37.063Z,21.90
2023-02-03T01:04:04.304Z,18.67
2023-02-03T01:06:33.557Z,21.85
2023-02-03T01:09:03.475Z,21.20
2023-02-03T01:11:30.405Z,20.35
2023-02-03T01:14:01.722Z,16.60
2023-02-03T01:16:30.706Z,16.30
2023-02-03T01:18:57.686Z,16.52
2023-02-03T01:21:26.178Z,13.55
2023-02-03T01:23:53.976Z,19.90
2023-02-03T01:26:22.567Z,15.32
2023-02-03T01:28:54.880Z,14.32
2023-02-03T01:31:29.306Z,19.00
2023-02-03T01:33:57.389Z,16.77
2023-02-03T01:36:29.477Z,16.52
2023-02-03T01:41:30.171Z,20.10
2023-02-03T01:43:58.955Z,17.35
2023-02-03T01:46:29.218Z,18.13
2023-02-03T01:49:19.801Z,16.65
2023-02-03T01:51:47.642Z,14.15
2023-02-03T01:54:27.795Z,21.42
2023-02-03T01:56:59.077Z,12.15
2023-02-03T01:59:26.981Z,12.03
2023-02-03T02:01:54.837Z,15.48
2023-02-03T02:04:23.356Z,13.82
2023-02-03T02:06:51.762Z,16.45
2023-02-03T02:09:19.073Z,13.35
2023-02-03T02:11:46.046Z,14.93
2023-02-03T02:14:13.672Z,14.15
2023-02-03T02:16:52.342Z,10.23
2023-02-03T02:19:50.357Z,12.02
2023-02-03T02:22:44.634Z,11.73
2023-02-03T02:25:24.401Z,14.07
2023-02-03T02:28:22.134Z,14.38
2023-02-03T02:31:27.819Z,13.65
2023-02-03T02:34:22.914Z,17.85
2023-02-03T02:37:19.744Z,11.02
2023-02-03T02:40:24.613Z,12.57
2023-02-03T02:43:09.106Z,15.05
2023-02-03T02:45:45.537Z,11.05
2023-02-03T02:48:24.786Z,9.20
2023-02-03T02:50:55.447Z,10.50
2023-02-03T02:53:26.303Z,12.00
2023-02-03T02:55:57.126Z,10.80
2023-02-03T02:58:26.822Z,9.23
2023-02-03T03:00:57.127Z,7.28
2023-02-03T03:03:25.224Z,8.98
2023-02-03T03:06:00.530Z,12.98
2023-02-03T03:09:16.297Z,9.02
2023-02-03T03:12:35.676Z,7.00
2023-02-03T03:15:14.393Z,12.68
2023-02-03T03:17:48.668Z,12.18
2023-02-03T03:20:25.093Z,7.03
2023-02-03T03:23:00.397Z,16.20
2023-02-03T03:25:52.228Z,10.50
2023-02-03T03:28:30.147Z,17.63
2023-02-03T03:30:57.846Z,8.57
2023-02-03T03:33:26.110Z,9.85
2023-02-03T03:36:20.170Z,13.57
2023-02-03T03:38:55.955Z,11.63
2023-02-03T03:41:38.973Z,10.05
2023-02-03T03:44:11.340Z,8.57
2023-02-03T03:46:45.008Z,16.40
2023-02-03T03:49:13.457Z,14.07
2023-02-03T03:52:04.608Z,13.43
2023-02-03T03:54:33.832Z,8.30
2023-02-03T03:57:15.772Z,12.13
2023-02-03T03:59:46.983Z,12.45
2023-02-03T04:02:16.308Z,8.83
2023-02-03T04:04:44.847Z,13.52
2023-02-03T04:07:13.805Z,10.00
2023-02-03T04:09:42.862Z,9.48
2023-02-03T04:12:25.082Z,5.38
2023-02-03T04:14:51.963Z,12.65
2023-02-03T04:17:20.136Z,5.25
2023-02-03T04:19:48.365Z,18.90
2023-02-03T04:22:15.470Z,9.98
2023-02-03T04:24:42.378Z,7.93
2023-02-03T04:27:09.288Z,17.10
2023-02-03T04:29:36.219Z,14.77
2023-02-03T04:32:03.314Z,9.38
2023-02-03T04:34:30.294Z,17.15
2023-02-03T04:36:57.126Z,11.50
2023-02-03T04:39:24.040Z,6.10
2023-02-03T04:41:50.979Z,10.77
2023-02-03T04:44:17.931Z,13.02
2023-02-03T04:46:44.845Z,7.97
2023-02-03T04:49:11.766Z,8.52
2023-02-03T04:51:38.749Z,14.73
2023-02-03T04:54:05.700Z,14.93
2023-02-03T04:56:32.620Z,7.93
2023-02-03T04:58:59.677Z,13.77
2023-02-03T05:01:26.671Z,7.70
2023-02-03T05:03:53.868Z,11.48
2023-02-03T05:06:26.252Z,10.50
2023-02-03T05:08:53.564Z,10.63
2023-02-03T05:11:21.342Z,6.95
2023-02-03T05:13:48.485Z,6.53
2023-02-03T05:16:15.720Z,10.70
2023-02-03T05:18:42.836Z,10.43
2023-02-03T05:21:09.771Z,6.93
2023-02-03T05:23:36.947Z,10.45
2023-02-03T05:26:04.386Z,8.57
2023-02-03T05:28:31.608Z,7.93
2023-02-03T05:30:59.571Z,6.47
2023-02-03T05:33:26.489Z,9.15
2023-02-03T05:35:53.692Z,5.88
2023-02-03T05:38:21.384Z,8.52
2023-02-03T05:41:07.969Z,4.45
2023-02-03T05:43:35.295Z,4.70
2023-02-03T05:46:07.229Z,13.32
2023-02-03T05:48:34.809Z,7.47
2023-02-03T05:51:01.896Z,7.80
2023-02-03T05:53:29.003Z,5.97
2023-02-03T05:55:56.003Z,11.55
2023-02-03T05:58:23.039Z,6.53
2023-02-03T06:00:51.191Z,10.18
2023-02-03T06:03:18.577Z,9.93
2023-02-03T06:05:46.893Z,6.50
2023-02-03T06:08:14.354Z,5.07
2023-02-03T06:10:42.871Z,6.28
2023-02-03T06:13:15.104Z,6.53
2023-02-03T06:15:45.348Z,16.08
2023-02-03T06:18:12.601Z,10.57
2023-02-03T06:20:39.523Z,5.78
2023-02-03T06:23:06.441Z,11.20
2023-02-03T06:25:33.672Z,5.30
2023-02-03T06:28:00.792Z,8.80
2023-02-03T06:30:29.249Z,10.20
2023-02-03T06:32:56.998Z,5.65
2023-02-03T06:35:24.133Z,7.70
2023-02-03T06:37:51.047Z,8.80
2023-02-03T06:40:20.134Z,8.32
2023-02-03T06:42:48.917Z,9.63
2023-02-03T06:45:16.007Z,5.18
2023-02-03T06:47:44.621Z,9.05
2023-02-03T06:50:14.242Z,5.32
2023-02-03T06:52:41.668Z,7.90
2023-02-03T06:55:08.994Z,7.72
2023-02-03T06:57:37.928Z,4.57
2023-02-03T07:00:08.148Z,11.50
2023-02-03T07:02:36.523Z,5.03
2023-02-03T07:05:04.595Z,10.48
2023-02-03T07:07:34.163Z,11.38
2023-02-03T07:10:02.484Z,11.60
2023-02-03T07:12:29.731Z,11.40
2023-02-03T07:14:57.046Z,9.13
2023-02-03T07:17:24.362Z,5.43
2023-02-03T07:19:52.403Z,5.88
2023-02-03T07:22:20.045Z,7.47
2023-02-03T07:24:47.174Z,4.93
2023-02-03T07:27:14.402Z,5.43
2023-02-03T07:29:41.228Z,8.32
2023-02-03T07:32:08.524Z,6.45
2023-02-03T07:34:37.006Z,6.97
2023-02-03T07:37:04.620Z,5.20
2023-02-03T07:39:33.357Z,7.45
2023-02-03T07:42:01.380Z,3.97
2023-02-03T07:44:31.553Z,14.60
2023-02-03T07:46:58.760Z,6.70
2023-02-03T07:49:26.381Z,3.92
2023-02-03T07:51:53.316Z,7.95
2023-02-03T07:54:20.943Z,6.80
2023-02-03T07:56:53.233Z,6.70
2023-02-03T07:59:20.451Z,7.28
2023-02-03T08:01:49.083Z,8.07
2023-02-03T08:04:17.360Z,5.05
2023-02-03T08:06:44.541Z,4.32
2023-02-03T08:09:12.816Z,10.38
2023-02-03T08:11:40.372Z,8.93
2023-02-03T08:14:08.065Z,7.20
2023-02-03T08:16:35.037Z,8.07
2023-02-03T08:19:02.744Z,6.10
2023-02-03T08:21:30.106Z,10.20
2023-02-03T08:23:58.496Z,10.68
2023-02-03T08:26:26.334Z,7.55
2023-02-03T08:28:54.387Z,7.57
2023-02-03T08:31:24.183Z,9.82
2023-02-03T08:36:40.528Z,7.55
2023-02-03T08:39:08.590Z,8.80
2023-02-03T08:41:36.366Z,7.93
2023-02-03T08:44:04.835Z,7.53
2023-02-03T08:46:33.103Z,9.43
2023-02-03T08:49:03.155Z,14.23
2023-02-03T08:51:31.268Z,6.82
2023-02-03T08:53:59.219Z,5.30
2023-02-03T08:56:27.412Z,9.80
2023-02-03T08:58:56.144Z,10.73
2023-02-03T09:01:23.601Z,6.32
2023-02-03T09:03:50.805Z,6.18
2023-02-03T09:06:18.755Z,7.13
2023-02-03T09:08:47.695Z,7.78
2023-02-03T09:11:18.108Z,8.30
2023-02-03T09:14:07.333Z,9.70
2023-02-03T09:16:36.873Z,25.52
2023-02-03T09:19:03.970Z,9.27
2023-02-03T09:21:33.345Z,7.03
2023-02-03T09:24:06.508Z,7.85
2023-02-03T09:26:33.968Z,6.13
2023-02-03T09:29:01.849Z,8.40
2023-02-03T09:31:29.107Z,6.13
2023-02-03T09:33:56.068Z,8.05
2023-02-03T09:36:23.031Z,6.43
2023-02-03T09:38:50.333Z,6.88
2023-02-03T09:41:31.615Z,7.97
2023-02-03T09:44:19.038Z,6.15
2023-02-03T09:46:52.091Z,6.10
2023-02-03T09:49:24.184Z,8.38
2023-02-03T09:51:59.418Z,5.22
2023-02-03T09:54:48.273Z,6.85
2023-02-03T09:57:24.633Z,6.57
2023-02-03T09:59:54.570Z,5.00
2023-02-03T10:02:21.658Z,7.35
2023-02-03T10:05:26.429Z,6.88
2023-02-03T10:08:06.333Z,6.70
2023-02-03T10:10:49.255Z,5.50
2023-02-03T10:13:45.831Z,8.52
2023-02-03T10:16:19.692Z,6.82
2023-02-03T10:18:51.121Z,10.35
2023-02-03T10:21:43.197Z,8.15
2023-02-03T10:24:19.613Z,6.00
2023-02-03T10:26:47.278Z,4.45
2023-02-03T10:29:27.214Z,5.78
2023-02-03T10:31:58.825Z,3.85
2023-02-03T10:34:26.499Z,5.35
2023-02-03T10:36:58.230Z,5.18
2023-02-03T10:39:30.335Z,3.70
2023-02-03T10:41:57.707Z,8.15
2023-02-03T10:44:33.727Z,4.68
2023-02-03T10:47:00.941Z,4.07
2023-02-03T10:49:29.628Z,10.50
2023-02-03T10:52:05.171Z,7.45
2023-02-03T10:54:38.267Z,5.88
2023-02-03T10:57:11.118Z,7.88
2023-02-03T10:59:42.814Z,5.90
2023-02-03T11:02:22.525Z,5.93
2023-02-03T11:05:19.320Z,9.20
2023-02-03T11:07:46.836Z,10.05
2023-02-03T11:10:31.074Z,8.20
2023-02-03T11:13:18.546Z,4.25
2023-02-03T11:15:52.328Z,9.50
2023-02-03T11:18:30.134Z,9.65
2023-02-03T11:20:58.904Z,9.57
2023-02-03T11:23:26.522Z,7.65
2023-02-03T11:25:56.105Z,5.80
2023-02-03T11:28:28.092Z,7.60
2023-02-03T11:30:58.143Z,12.27
2023-02-03T11:33:27.962Z,9.60
2023-02-03T11:36:02.380Z,9.85
2023-02-03T11:38:39.754Z,15.52
2023-02-03T11:41:07.864Z,10.10
2023-02-03T11:43:34.838Z,7.18
2023-02-03T11:46:09.896Z,13.40
2023-02-03T11:48:41.332Z,11.68
2023-02-03T11:51:43.994Z,15.07
2023-02-03T11:54:48.802Z,11.20
2023-02-03T11:57:35.338Z,12.10
2023-02-03T12:00:14.496Z,11.18
2023-02-03T12:02:59.847Z,10.32
2023-02-03T12:05:32.369Z,17.20
2023-02-03T12:08:02.453Z,10.35
2023-02-03T12:10:46.735Z,12.25
2023-02-03T12:13:43.332Z,13.18
2023-02-03T12:16:34.416Z,11.18
2023-02-03T12:19:27.560Z,9.48
2023-02-03T12:22:29.846Z,7.25
2023-02-03T12:25:23.807Z,11.85
2023-02-03T12:28:05.894Z,11.07
2023-02-03T12:30:42.384Z,9.35
2023-02-03T12:33:19.444Z,13.95
2023-02-03T12:35:57.330Z,15.38
2023-02-03T12:38:34.676Z,12.30
2023-02-03T12:41:14.001Z,10.57
2023-02-03T12:43:49.363Z,9.20
2023-02-03T12:46:58.832Z,11.73
2023-02-03T12:49:36.889Z,16.13
2023-02-03T12:52:19.408Z,10.50
2023-02-03T12:57:38.117Z,7.90
2023-02-03T13:00:27.407Z,9.50
2023-02-03T13:03:30.055Z,10.13
2023-02-03T13:06:15.340Z,12.63
2023-02-03T13:08:53.811Z,14.07
2023-02-03T13:11:37.728Z,13.13
2023-02-03T13:14:21.401Z,9.15
2023-02-03T13:16:55.781Z,14.32
2023-02-03T13:19:28.630Z,12.48
2023-02-03T13:21:55.671Z,14.68
2023-02-03T13:24:27.807Z,8.95
2023-02-03T13:27:09.783Z,12.45
2023-02-03T13:29:52.976Z,10.82
2023-02-03T13:32:41.196Z,6.35
2023-02-03T13:35:33.884Z,15.63
2023-02-03T13:38:39.439Z,8.68
2023-02-03T13:41:15.595Z,10.55
2023-02-03T13:43:48.991Z,10.38
2023-02-03T13:46:32.280Z,9.85
2023-02-03T13:49:02.281Z,7.82
2023-02-03T13:51:36.254Z,9.38
2023-02-03T13:54:14.455Z,13.43
2023-02-03T13:56:42.895Z,11.30
2023-02-03T13:59:16.657Z,9.57
2023-02-03T14:01:44.752Z,11.93
2023-02-03T14:04:27.004Z,10.27
2023-02-03T14:06:54.085Z,8.73
2023-02-03T14:09:36.550Z,5.18
2023-02-03T14:15:13.350Z,10.43
2023-02-03T14:17:42.544Z,5.05
2023-02-03T14:20:27.966Z,6.28
2023-02-03T14:22:59.408Z,5.60
2023-02-03T14:25:28.268Z,8.30
2023-02-03T14:28:06.486Z,3.42
2023-02-03T14:30:33.932Z,7.35
2023-02-03T14:33:06.873Z,5.63
2023-02-03T14:35:37.500Z,4.72
2023-02-03T14:38:13.330Z,9.05
2023-02-03T14:41:04.885Z,9.43
2023-02-03T14:43:37.909Z,4.63
2023-02-03T14:46:31.312Z,10.43
2023-02-03T14:49:45.766Z,7.32
2023-02-03T14:52:20.529Z,5.88
2023-02-03T14:55:30.967Z,14.07
2023-02-03T14:58:03.280Z,6.55
2023-02-03T15:03:10.833Z,10.98
2023-02-03T15:05:46.617Z,17.80
2023-02-03T15:08:44.170Z,7.55
2023-02-03T15:11:27.590Z,5.95
2023-02-03T15:13:56.940Z,12.98
2023-02-03T15:16:25.402Z,10.25
2023-02-03T15:19:00.676Z,7.18
2023-02-03T15:21:27.861Z,7.35
2023-02-03T15:23:54.937Z,8.27
2023-02-03T15:26:24.962Z,5.28
2023-02-03T15:29:05.784Z,5.93
2023-02-03T15:31:45.813Z,7.93
2023-02-03T15:34:17.459Z,10.32
2023-02-03T15:36:49.900Z,8.18
2023-02-03T15:39:39.028Z,7.22
2023-02-03T15:42:16.662Z,5.43
2023-02-03T15:45:21.642Z,5.65
2023-02-03T15:47:54.742Z,3.47
2023-02-03T15:50:50.813Z,4.45
2023-02-03T15:53:31.958Z,8.30
2023-02-03T15:56:06.023Z,6.57
2023-02-03T15:58:46.922Z,5.63
2023-02-03T16:01:18.006Z,13.90
2023-02-03T16:03:53.512Z,5.40
2023-02-03T16:06:38.537Z,4.05
2023-02-03T16:09:07.290Z,7.20
2023-02-03T16:11:37.022Z,8.32
2023-02-03T16:14:12.097Z,8.55
2023-02-03T16:17:04.437Z,6.63
2023-02-03T16:19:38.655Z,8.38
2023-02-03T16:22:37.621Z,7.30
2023-02-03T16:25:13.852Z,3.53
2023-02-03T16:27:43.933Z,3.40
2023-02-03T16:30:29.458Z,4.18
2023-02-03T16:33:27.682Z,5.45
2023-02-03T16:36:15.616Z,5.60
2023-02-03T16:39:08.647Z,4.93
2023-02-03T16:41:57.077Z,8.25
2023-02-03T16:44:42.610Z,4.18
2023-02-03T16:47:49.872Z,9.48
2023-02-03T16:50:41.014Z,6.13
2023-02-03T16:53:18.495Z,8.02
2023-02-03T16:55:46.020Z,6.03
2023-02-03T16:58:13.058Z,9.40
2023-02-03T17:00:42.119Z,4.47
2023-02-03T17:03:13.971Z,7.32
2023-02-03T17:05:42.866Z,8.57
2023-02-03T17:08:09.889Z,3.53
2023-02-03T17:10:38.606Z,5.10
2023-02-03T17:13:05.801Z,7.15
2023-02-03T17:15:33.424Z,7.38
2023-02-03T17:18:00.814Z,7.20
2023-02-03T17:20:27.936Z,6.72
2023-02-03T17:22:55.158Z,8.30
2023-02-03T17:25:22.247Z,7.57
2023-02-03T17:27:49.320Z,9.38
2023-02-03T17:30:16.864Z,7.03
2023-02-03T17:32:45.567Z,6.25
2023-02-03T17:35:12.809Z,8.65
2023-02-03T17:37:39.767Z,7.68
2023-02-03T17:54:06.337Z,9.18
2023-02-03T17:56:35.994Z,6.53
2023-02-03T17:59:05.039Z,8.80
2023-02-03T18:01:32.457Z,8.23
2023-02-03T18:04:02.144Z,7.70
2023-02-03T18:06:35.675Z,13.13
2023-02-03T18:09:06.173Z,13.18
2023-02-03T18:11:35.223Z,7.05
2023-02-03T18:14:03.210Z,13.55
2023-02-03T18:16:33.325Z,7.28
2023-02-03T18:19:02.685Z,9.73
2023-02-03T18:21:36.477Z,10.50
2023-02-03T18:24:05.920Z,9.70
2023-02-03T18:26:37.599Z,8.90
2023-02-03T18:29:06.899Z,13.00
2023-02-03T18:31:35.126Z,12.88
2023-02-03T18:34:03.893Z,9.75
2023-02-03T18:36:32.191Z,8.15
2023-02-03T18:38:59.387Z,8.43
2023-02-03T18:41:26.776Z,9.98
2023-02-03T18:43:54.417Z,8.57
2023-02-03T18:46:29.543Z,11.40
2023-02-03T18:48:57.044Z,9.82
2023-02-03T18:51:25.468Z,9.45
2023-02-03T18:53:55.878Z,7.55
2023-02-03T18:56:26.432Z,11.68
2023-02-03T18:58:53.987Z,12.00
2023-02-03T19:01:26.416Z,9.40
2023-02-03T19:03:55.588Z,12.20
2023-02-03T19:06:26.546Z,7.85
2023-02-03T19:08:53.685Z,8.50
2023-02-03T19:11:20.855Z,6.93
2023-02-03T19:13:48.535Z,10.05
2023-02-03T19:16:17.082Z,6.40
2023-02-03T19:18:45.375Z,6.00
2023-02-03T19:21:13.647Z,9.65
2023-02-03T19:23:41.824Z,11.77
2023-02-03T19:26:10.158Z,5.20
2023-02-03T19:28:37.856Z,10.25
2023-02-03T19:31:11.617Z,6.38
2023-02-03T19:33:39.269Z,5.95
2023-02-03T19:36:07.263Z,6.50
2023-02-03T19:38:34.560Z,8.10
2023-02-03T19:41:02.334Z,9.57
2023-02-03T19:43:31.669Z,9.32
2023-02-03T19:46:02.459Z,11.52
2023-02-03T19:48:29.629Z,6.82
2023-02-03T19:50:56.679Z,12.27
2023-02-03T19:53:24.512Z,9.85
2023-02-03T19:55:52.376Z,7.15
2023-02-03T19:58:20.582Z,11.95
2023-02-03T20:00:47.723Z,10.32
2023-02-03T20:03:14.738Z,7.90
2023-02-03T20:05:41.722Z,9.48
2023-02-03T20:08:13.094Z,10.70
2023-02-03T20:10:41.318Z,11.03
2023-02-03T20:13:10.228Z,12.13
2023-02-03T20:15:37.447Z,10.60
2023-02-03T20:18:06.737Z,8.50
2023-02-03T20:20:34.243Z,10.07
2023-02-03T20:23:02.805Z,10.23
2023-02-03T20:25:29.880Z,10.35
2023-02-03T20:27:59.846Z,11.07
2023-02-03T20:30:26.920Z,12.48
2023-02-03T20:32:56.334Z,15.88
2023-02-03T20:35:24.034Z,14.98
2023-02-03T20:37:52.390Z,15.35
2023-02-03T20:40:24.892Z,12.85
2023-02-03T20:42:54.204Z,10.85
2023-02-03T20:45:23.352Z,13.70
2023-02-03T20:47:51.672Z,16.60
2023-02-03T20:50:25.223Z,15.25
2023-02-03T20:52:56.130Z,14.57
2023-02-03T20:55:24.215Z,14.75
2023-02-03T20:57:54.456Z,15.65
2023-02-03T21:00:25.919Z,13.00
2023-02-03T21:03:12.068Z,17.40
2023-02-03T21:05:42.210Z,20.73
2023-02-03T21:08:20.338Z,18.83
2023-02-03T21:10:48.670Z,17.75
2023-02-03T21:13:21.312Z,17.10
2023-02-03T21:15:56.324Z,16.83
2023-02-03T21:18:38.527Z,20.20
2023-02-03T21:21:11.489Z,17.92
2023-02-03T21:23:40.218Z,15.15
2023-02-03T21:26:23.309Z,20.02
2023-02-03T21:28:55.659Z,15.93
2023-02-03T21:31:28.423Z,17.88
2023-02-03T21:34:01.972Z,21.08
2023-02-03T21:36:35.789Z,25.27
2023-02-03T21:39:23.868Z,20.52
2023-02-03T21:41:51.035Z,26.08
2023-02-03T21:44:33.564Z,22.23
2023-02-03T21:47:12.882Z,25.33
2023-02-03T21:49:40.136Z,27.00
2023-02-03T21:52:14.539Z,26.80
2023-02-03T21:54:44.626Z,26.95
2023-02-03T21:57:17.891Z,26.80
2023-02-03T21:59:49.289Z,28.65
2023-02-03T22:02:55.560Z,36.83
2023-02-03T22:05:23.969Z,29.80
2023-02-03T22:07:51.357Z,28.98
2023-02-03T22:10:21.570Z,28.35
2023-02-03T22:12:48.592Z,36.05
2023-02-03T22:15:15.818Z,37.42
2023-02-03T22:17:42.796Z,34.15
2023-02-03T22:20:10.386Z,34.63
2023-02-03T22:22:37.516Z,41.47
2023-02-03T22:25:04.646Z,35.40
2023-02-03T22:27:32.688Z,35.83
2023-02-03T22:29:59.583Z,39.08
2023-02-03T22:32:28.468Z,42.20
2023-02-03T22:34:55.623Z,39.92
2023-02-03T22:37:22.672Z,34.83
2023-02-03T22:39:49.893Z,37.08
2023-02-03T22:42:17.659Z,38.90
2023-02-03T22:44:45.534Z,36.92
2023-02-03T22:47:12.513Z,46.17
2023-02-03T22:49:39.449Z,40.35
2023-02-03T22:52:06.696Z,36.38
2023-02-03T22:54:34.646Z,39.33
2023-02-03T22:57:01.771Z,37.95
2023-02-03T22:59:29.009Z,42.15
2023-02-03T23:01:56.099Z,43.40
2023-02-03T23:04:23.901Z,45.28
2023-02-03T23:06:50.840Z,44.95
2023-02-03T23:09:18.423Z,44.80
2023-02-03T23:11:46.770Z,45.25
2023-02-03T23:14:14.018Z,42.80
2023-02-03T23:16:41.077Z,48.13
2023-02-03T23:19:08.014Z,46.00
2023-02-03T23:21:35.103Z,43.75
2023-02-03T23:24:02.053Z,44.53
2023-02-03T23:26:29.142Z,48.25
2023-02-03T23:28:56.191Z,42.75
2023-02-03T23:31:23.501Z,43.97
2023-02-03T23:34:08.983Z,43.47
2023-02-03T23:36:35.948Z,45.92
2023-02-03T23:39:03.166Z,45.53
2023-02-03T23:41:30.129Z,46.65
2023-02-03T23:43:57.095Z,47.70
2023-02-03T23:46:25.487Z,53.22
2023-02-03T23:48:52.787Z,50.65
2023-02-03T23:51:19.692Z,48.60
2023-02-03T23:53:46.737Z,53.13
2023-02-03T23:56:14.907Z,54.10
2023-02-03T23:58:41.940Z,53.22
